sensor_id;sensor_type;location;lat;lon;timestamp;pressure;altitude;pressure_sealevel;temperature;humidity
45357;BME280;31092;51.924;21.448;2023-09-12T00:00:55;99684.25;;;14.87;100.00
45357;BME280;31092;51.924;21.448;2023-09-12T00:03:22;99622.22;;;14.44;100.00
45357;BME280;31092;51.924;21.448;2023-09-12T00:05:56;99594.06;;;14.25;100.00
45357;BME280;31092;51.924;21.448;2023-09-12T00:08:22;99681.72;;;14.72;100.00
45357;BME280;31092;51.924;21.448;2023-09-12T00:11:05;99660.44;;;14.63;100.00
45357;BME280;31092;51.924;21.448;2023-09-12T00:13:32;99654.78;;;14.57;100.00
45357;BME280;31092;51.924;21.448;2023-09-12T00:15:57;99605.94;;;14.24;100.00
45357;BME280;31092;51.924;21.448;2023-09-12T00:18:23;99606.97;;;14.17;100.00
45357;BME280;31092;51.924;21.448;2023-09-12T00:20:50;99674.41;;;14.53;100.00
45357;BME280;31092;51.924;21.448;2023-09-12T00:23:16;99609.69;;;14.17;100.00
45357;BME280;31092;51.924;21.448;2023-09-12T00:25:41;99615.06;;;14.10;100.00
45357;BME280;31092;51.924;21.448;2023-09-12T00:28:07;99687.25;;;14.44;100.00
45357;BME280;31092;51.924;21.448;2023-09-12T00:30:32;99643.00;;;14.17;100.00
45357;BME280;31092;51.924;21.448;2023-09-12T00:32:58;99675.56;;;14.30;100.00
45357;BME280;31092;51.924;21.448;2023-09-12T00:35:23;99589.56;;;13.78;100.00
45357;BME280;31092;51.924;21.448;2023-09-12T00:37:48;99677.41;;;14.30;100.00
45357;BME280;31092;51.924;21.448;2023-09-12T00:40:14;99687.69;;;14.41;100.00
45357;BME280;31092;51.924;21.448;2023-09-12T00:42:40;99668.69;;;14.34;100.00
45357;BME280;31092;51.924;21.448;2023-09-12T00:45:06;99612.31;;;13.97;100.00
45357;BME280;31092;51.924;21.448;2023-09-12T00:47:32;99604.41;;;13.95;100.00
45357;BME280;31092;51.924;21.448;2023-09-12T00:49:59;99608.56;;;13.91;100.00
45357;BME280;31092;51.924;21.448;2023-09-12T00:52:27;99671.13;;;14.23;100.00
45357;BME280;31092;51.924;21.448;2023-09-12T00:54:55;99599.16;;;13.80;100.00
45357;BME280;31092;51.924;21.448;2023-09-12T00:57:21;99612.50;;;13.88;100.00
45357;BME280;31092;51.924;21.448;2023-09-12T00:59:47;99612.28;;;13.90;100.00
45357;BME280;31092;51.924;21.448;2023-09-12T01:02:13;99614.56;;;13.86;100.00
45357;BME280;31092;51.924;21.448;2023-09-12T01:04:39;99679.88;;;14.18;100.00
45357;BME280;31092;51.924;21.448;2023-09-12T01:07:05;99672.41;;;14.20;100.00
45357;BME280;31092;51.924;21.448;2023-09-12T01:09:32;99603.72;;;13.73;100.00
45357;BME280;31092;51.924;21.448;2023-09-12T01:11:59;99601.84;;;13.74;100.00
45357;BME280;31092;51.924;21.448;2023-09-12T01:14:24;99664.44;;;14.05;100.00
45357;BME280;31092;51.924;21.448;2023-09-12T01:16:50;99639.19;;;13.92;100.00
45357;BME280;31092;51.924;21.448;2023-09-12T01:19:16;99679.03;;;14.11;100.00
45357;BME280;31092;51.924;21.448;2023-09-12T01:27:24;99600.06;;;13.53;100.00
45357;BME280;31092;51.924;21.448;2023-09-12T01:29:54;99607.16;;;13.54;100.00
45357;BME280;31092;51.924;21.448;2023-09-12T01:32:21;99663.31;;;13.93;100.00
45357;BME280;31092;51.924;21.448;2023-09-12T01:34:47;99585.47;;;13.47;100.00
45357;BME280;31092;51.924;21.448;2023-09-12T01:37:13;99670.41;;;13.94;100.00
45357;BME280;31092;51.924;21.448;2023-09-12T01:39:39;99658.50;;;13.82;100.00
45357;BME280;31092;51.924;21.448;2023-09-12T01:42:05;99635.72;;;13.63;100.00
45357;BME280;31092;51.924;21.448;2023-09-12T01:44:32;99595.81;;;13.37;100.00
45357;BME280;31092;51.924;21.448;2023-09-12T01:47:03;99610.41;;;13.43;100.00
45357;BME280;31092;51.924;21.448;2023-09-12T01:49:29;99666.56;;;13.75;100.00
45357;BME280;31092;51.924;21.448;2023-09-12T01:51:56;99600.22;;;13.38;100.00
45357;BME280;31092;51.924;21.448;2023-09-12T01:54:26;99611.25;;;13.43;100.00
45357;BME280;31092;51.924;21.448;2023-09-12T01:56:54;99677.22;;;13.83;100.00
45357;BME280;31092;51.924;21.448;2023-09-12T01:59:23;99684.50;;;13.83;100.00
45357;BME280;31092;51.924;21.448;2023-09-12T02:01:48;99577.69;;;13.31;100.00
45357;BME280;31092;51.924;21.448;2023-09-12T02:04:14;99558.88;;;13.23;100.00
45357;BME280;31092;51.924;21.448;2023-09-12T02:06:39;99653.69;;;13.77;100.00
45357;BME280;31092;51.924;21.448;2023-09-12T02:09:05;99670.84;;;13.91;100.00
45357;BME280;31092;51.924;21.448;2023-09-12T02:11:30;99640.34;;;13.76;100.00
45357;BME280;31092;51.924;21.448;2023-09-12T02:13:56;99563.66;;;13.21;100.00
45357;BME280;31092;51.924;21.448;2023-09-12T02:16:21;99672.47;;;13.85;100.00
45357;BME280;31092;51.924;21.448;2023-09-12T02:18:47;99657.84;;;13.73;100.00
45357;BME280;31092;51.924;21.448;2023-09-12T02:21:13;99601.88;;;13.39;100.00
45357;BME280;31092;51.924;21.448;2023-09-12T02:23:38;99642.09;;;13.55;100.00
45357;BME280;31092;51.924;21.448;2023-09-12T02:26:04;99644.41;;;13.58;100.00
45357;BME280;31092;51.924;21.448;2023-09-12T02:28:29;99641.22;;;13.48;100.00
45357;BME280;31092;51.924;21.448;2023-09-12T02:30:55;99669.19;;;13.62;100.00
45357;BME280;31092;51.924;21.448;2023-09-12T02:33:20;99561.44;;;12.96;100.00
45357;BME280;31092;51.924;21.448;2023-09-12T02:35:46;99666.88;;;13.59;100.00
45357;BME280;31092;51.924;21.448;2023-09-12T02:38:11;99681.94;;;13.68;100.00
45357;BME280;31092;51.924;21.448;2023-09-12T02:40:37;99654.44;;;13.64;100.00
45357;BME280;31092;51.924;21.448;2023-09-12T02:43:03;99611.84;;;13.38;100.00
45357;BME280;31092;51.924;21.448;2023-09-12T02:45:28;99606.81;;;13.29;100.00
45357;BME280;31092;51.924;21.448;2023-09-12T02:47:54;99631.03;;;13.44;100.00
45357;BME280;31092;51.924;21.448;2023-09-12T02:50:19;99611.59;;;13.33;100.00
45357;BME280;31092;51.924;21.448;2023-09-12T02:52:45;99685.97;;;13.79;100.00
45357;BME280;31092;51.924;21.448;2023-09-12T02:55:10;99604.75;;;13.31;100.00
45357;BME280;31092;51.924;21.448;2023-09-12T02:57:36;99679.28;;;13.75;100.00
45357;BME280;31092;51.924;21.448;2023-09-12T03:00:02;99588.00;;;13.21;100.00
45357;BME280;31092;51.924;21.448;2023-09-12T03:02:27;99604.53;;;13.32;100.00
45357;BME280;31092;51.924;21.448;2023-09-12T03:04:54;99615.13;;;13.34;100.00
45357;BME280;31092;51.924;21.448;2023-09-12T03:07:20;99660.66;;;13.58;100.00
45357;BME280;31092;51.924;21.448;2023-09-12T03:09:48;99693.19;;;13.72;100.00
45357;BME280;31092;51.924;21.448;2023-09-12T03:12:15;99597.94;;;13.13;100.00
45357;BME280;31092;51.924;21.448;2023-09-12T03:14:40;99597.72;;;13.15;100.00
45357;BME280;31092;51.924;21.448;2023-09-12T03:17:06;99627.03;;;13.39;100.00
45357;BME280;31092;51.924;21.448;2023-09-12T03:19:31;99667.97;;;13.64;100.00
45357;BME280;31092;51.924;21.448;2023-09-12T03:21:57;99580.25;;;13.11;100.00
45357;BME280;31092;51.924;21.448;2023-09-12T03:24:22;99598.47;;;13.24;100.00
45357;BME280;31092;51.924;21.448;2023-09-12T03:26:50;99644.97;;;13.47;100.00
45357;BME280;31092;51.924;21.448;2023-09-12T03:29:16;99573.56;;;13.07;100.00
45357;BME280;31092;51.924;21.448;2023-09-12T03:31:41;99656.28;;;13.57;100.00
45357;BME280;31092;51.924;21.448;2023-09-12T03:34:07;99661.47;;;13.59;100.00
45357;BME280;31092;51.924;21.448;2023-09-12T03:36:32;99634.50;;;13.37;100.00
45357;BME280;31092;51.924;21.448;2023-09-12T03:38:58;99690.06;;;13.68;100.00
45357;BME280;31092;51.924;21.448;2023-09-12T03:41:23;99589.00;;;13.13;100.00
45357;BME280;31092;51.924;21.448;2023-09-12T03:43:53;99596.31;;;13.19;100.00
45357;BME280;31092;51.924;21.448;2023-09-12T03:46:19;99618.06;;;13.32;100.00
45357;BME280;31092;51.924;21.448;2023-09-12T03:48:44;99612.00;;;13.30;100.00
45357;BME280;31092;51.924;21.448;2023-09-12T03:51:11;99641.88;;;13.50;100.00
45357;BME280;31092;51.924;21.448;2023-09-12T03:53:36;99606.19;;;13.33;100.00
45357;BME280;31092;51.924;21.448;2023-09-12T03:56:02;99617.25;;;13.38;100.00
45357;BME280;31092;51.924;21.448;2023-09-12T03:58:27;99599.50;;;13.29;100.00
45357;BME280;31092;51.924;21.448;2023-09-12T04:00:53;99629.41;;;13.49;100.00
45357;BME280;31092;51.924;21.448;2023-09-12T04:03:19;99688.06;;;13.83;100.00
45357;BME280;31092;51.924;21.448;2023-09-12T04:05:50;99683.47;;;13.77;100.00
45357;BME280;31092;51.924;21.448;2023-09-12T04:08:15;99615.56;;;13.31;100.00
45357;BME280;31092;51.924;21.448;2023-09-12T04:10:42;99625.13;;;13.33;100.00
45357;BME280;31092;51.924;21.448;2023-09-12T04:13:08;99616.19;;;13.33;100.00
45357;BME280;31092;51.924;21.448;2023-09-12T04:15:34;99702.28;;;13.92;100.00
45357;BME280;31092;51.924;21.448;2023-09-12T04:17:59;99696.84;;;13.92;100.00
45357;BME280;31092;51.924;21.448;2023-09-12T04:20:25;99642.34;;;13.60;100.00
45357;BME280;31092;51.924;21.448;2023-09-12T04:22:50;99614.59;;;13.45;100.00
45357;BME280;31092;51.924;21.448;2023-09-12T04:25:16;99683.50;;;13.90;100.00
45357;BME280;31092;51.924;21.448;2023-09-12T04:27:45;99672.69;;;13.90;100.00
45357;BME280;31092;51.924;21.448;2023-09-12T04:30:11;99696.50;;;14.08;100.00
45357;BME280;31092;51.924;21.448;2023-09-12T04:32:36;99634.91;;;13.69;100.00
45357;BME280;31092;51.924;21.448;2023-09-12T04:35:02;99687.75;;;14.06;100.00
45357;BME280;31092;51.924;21.448;2023-09-12T04:37:28;99672.97;;;14.02;100.00
45357;BME280;31092;51.924;21.448;2023-09-12T04:39:54;99679.66;;;14.13;100.00
45357;BME280;31092;51.924;21.448;2023-09-12T04:42:20;99686.53;;;14.16;100.00
45357;BME280;31092;51.924;21.448;2023-09-12T04:44:46;99707.41;;;14.28;100.00
45357;BME280;31092;51.924;21.448;2023-09-12T04:47:11;99690.34;;;14.28;100.00
45357;BME280;31092;51.924;21.448;2023-09-12T04:49:39;99622.28;;;13.89;100.00
45357;BME280;31092;51.924;21.448;2023-09-12T04:52:05;99680.13;;;14.30;100.00
45357;BME280;31092;51.924;21.448;2023-09-12T04:54:30;99692.88;;;14.43;100.00
45357;BME280;31092;51.924;21.448;2023-09-12T04:56:56;99613.38;;;13.96;100.00
45357;BME280;31092;51.924;21.448;2023-09-12T04:59:27;99611.94;;;14.06;100.00
45357;BME280;31092;51.924;21.448;2023-09-12T05:01:53;99626.34;;;14.20;100.00
45357;BME280;31092;51.924;21.448;2023-09-12T05:04:18;99667.75;;;14.55;100.00
45357;BME280;31092;51.924;21.448;2023-09-12T05:06:45;99616.97;;;14.29;100.00
45357;BME280;31092;51.924;21.448;2023-09-12T05:09:10;99653.75;;;14.58;100.00
45357;BME280;31092;51.924;21.448;2023-09-12T05:11:36;99630.59;;;14.49;100.00
45357;BME280;31092;51.924;21.448;2023-09-12T05:14:01;99668.41;;;14.84;100.00
45357;BME280;31092;51.924;21.448;2023-09-12T05:16:29;99608.09;;;14.62;100.00
45357;BME280;31092;51.924;21.448;2023-09-12T05:18:55;99672.34;;;15.15;100.00
45357;BME280;31092;51.924;21.448;2023-09-12T05:21:20;99597.91;;;14.77;100.00
45357;BME280;31092;51.924;21.448;2023-09-12T05:23:46;99672.94;;;15.37;100.00
45357;BME280;31092;51.924;21.448;2023-09-12T05:26:11;99686.91;;;15.53;100.00
45357;BME280;31092;51.924;21.448;2023-09-12T05:28:37;99680.22;;;15.63;100.00
45357;BME280;31092;51.924;21.448;2023-09-12T05:31:03;99599.09;;;15.28;100.00
45357;BME280;31092;51.924;21.448;2023-09-12T05:33:28;99682.88;;;15.89;100.00
45357;BME280;31092;51.924;21.448;2023-09-12T05:35:54;99680.72;;;16.11;100.00
45357;BME280;31092;51.924;21.448;2023-09-12T05:38:19;99597.72;;;15.77;100.00
45357;BME280;31092;51.924;21.448;2023-09-12T05:40:45;99590.13;;;15.92;100.00
45357;BME280;31092;51.924;21.448;2023-09-12T05:43:10;99622.53;;;16.25;100.00
45357;BME280;31092;51.924;21.448;2023-09-12T05:45:36;99651.84;;;16.55;100.00
45357;BME280;31092;51.924;21.448;2023-09-12T05:48:02;99660.03;;;16.87;100.00
45357;BME280;31092;51.924;21.448;2023-09-12T05:50:28;99590.94;;;16.63;100.00
45357;BME280;31092;51.924;21.448;2023-09-12T05:52:54;99665.34;;;17.25;100.00
45357;BME280;31092;51.924;21.448;2023-09-12T05:55:19;99641.84;;;17.31;100.00
45357;BME280;31092;51.924;21.448;2023-09-12T05:57:45;99667.31;;;17.61;100.00
45357;BME280;31092;51.924;21.448;2023-09-12T06:00:18;99635.97;;;17.70;100.00
45357;BME280;31092;51.924;21.448;2023-09-12T06:02:45;99627.75;;;17.77;100.00
45357;BME280;31092;51.924;21.448;2023-09-12T06:05:10;99570.69;;;17.64;100.00
45357;BME280;31092;51.924;21.448;2023-09-12T06:07:36;99643.75;;;18.22;100.00
45357;BME280;31092;51.924;21.448;2023-09-12T06:10:02;99649.75;;;18.42;100.00
45357;BME280;31092;51.924;21.448;2023-09-12T06:12:28;99573.00;;;18.15;100.00
45357;BME280;31092;51.924;21.448;2023-09-12T06:14:54;99634.66;;;18.70;100.00
45357;BME280;31092;51.924;21.448;2023-09-12T06:17:21;99644.47;;;18.89;100.00
45357;BME280;31092;51.924;21.448;2023-09-12T06:19:54;99565.91;;;18.68;100.00
45357;BME280;31092;51.924;21.448;2023-09-12T06:22:19;99566.91;;;18.85;100.00
45357;BME280;31092;51.924;21.448;2023-09-12T06:24:45;99633.09;;;19.40;100.00
45357;BME280;31092;51.924;21.448;2023-09-12T06:27:11;99617.66;;;19.57;100.00
45357;BME280;31092;51.924;21.448;2023-09-12T06:29:47;99606.38;;;19.65;100.00
45357;BME280;31092;51.924;21.448;2023-09-12T06:32:14;99599.81;;;19.78;100.00
45357;BME280;31092;51.924;21.448;2023-09-12T06:34:40;99613.53;;;19.95;100.00
45357;BME280;31092;51.924;21.448;2023-09-12T06:37:06;99570.69;;;19.83;100.00
45357;BME280;31092;51.924;21.448;2023-09-12T06:39:32;99572.66;;;20.00;100.00
45357;BME280;31092;51.924;21.448;2023-09-12T06:41:57;99594.00;;;20.15;100.00
45357;BME280;31092;51.924;21.448;2023-09-12T06:44:23;99602.41;;;20.25;100.00
45357;BME280;31092;51.924;21.448;2023-09-12T06:46:48;99578.16;;;20.17;100.00
45357;BME280;31092;51.924;21.448;2023-09-12T06:49:14;99594.38;;;20.35;100.00
45357;BME280;31092;51.924;21.448;2023-09-12T06:51:40;99573.72;;;20.27;100.00
45357;BME280;31092;51.924;21.448;2023-09-12T06:54:05;99597.03;;;20.47;100.00
45357;BME280;31092;51.924;21.448;2023-09-12T06:56:31;99603.56;;;20.58;100.00
45357;BME280;31092;51.924;21.448;2023-09-12T06:58:57;99614.28;;;20.76;100.00
45357;BME280;31092;51.924;21.448;2023-09-12T07:01:24;99621.00;;;20.85;100.00
45357;BME280;31092;51.924;21.448;2023-09-12T07:03:50;99585.41;;;20.68;100.00
45357;BME280;31092;51.924;21.448;2023-09-12T07:06:19;99637.34;;;21.14;100.00
45357;BME280;31092;51.924;21.448;2023-09-12T07:08:44;99634.44;;;21.20;100.00
45357;BME280;31092;51.924;21.448;2023-09-12T07:11:10;99624.31;;;21.21;100.00
45357;BME280;31092;51.924;21.448;2023-09-12T07:13:35;99650.13;;;21.42;100.00
45357;BME280;31092;51.924;21.448;2023-09-12T07:16:01;99655.41;;;21.48;100.00
45357;BME280;31092;51.924;21.448;2023-09-12T07:18:30;99582.25;;;21.10;100.00
45357;BME280;31092;51.924;21.448;2023-09-12T07:20:59;99665.50;;;21.65;100.00
45357;BME280;31092;51.924;21.448;2023-09-12T07:23:25;99592.78;;;21.35;100.00
45357;BME280;31092;51.924;21.448;2023-09-12T07:25:59;99644.56;;;21.75;100.00
45357;BME280;31092;51.924;21.448;2023-09-12T07:28:26;99596.53;;;21.51;100.00
45357;BME280;31092;51.924;21.448;2023-09-12T07:30:52;99653.75;;;21.86;100.00
45357;BME280;31092;51.924;21.448;2023-09-12T07:33:18;99648.59;;;21.90;100.00
45357;BME280;31092;51.924;21.448;2023-09-12T07:35:43;99675.44;;;22.10;100.00
45357;BME280;31092;51.924;21.448;2023-09-12T07:38:09;99671.09;;;22.14;100.00
45357;BME280;31092;51.924;21.448;2023-09-12T07:40:34;99673.50;;;22.27;100.00
45357;BME280;31092;51.924;21.448;2023-09-12T07:43:00;99674.47;;;22.43;100.00
45357;BME280;31092;51.924;21.448;2023-09-12T07:45:25;99637.41;;;22.40;100.00
45357;BME280;31092;51.924;21.448;2023-09-12T07:47:51;99624.88;;;22.50;100.00
45357;BME280;31092;51.924;21.448;2023-09-12T07:50:16;99686.59;;;23.01;100.00
45357;BME280;31092;51.924;21.448;2023-09-12T07:52:42;99631.50;;;22.81;100.00
45357;BME280;31092;51.924;21.448;2023-09-12T07:55:08;99628.69;;;23.03;100.00
45357;BME280;31092;51.924;21.448;2023-09-12T07:57:34;99699.44;;;23.60;100.00
45357;BME280;31092;51.924;21.448;2023-09-12T08:00:00;99644.63;;;23.43;100.00
45357;BME280;31092;51.924;21.448;2023-09-12T08:02:26;99658.56;;;23.69;100.00
45357;BME280;31092;51.924;21.448;2023-09-12T08:04:52;99706.06;;;24.11;100.00
45357;BME280;31092;51.924;21.448;2023-09-12T08:07:19;99690.16;;;24.19;100.00
45357;BME280;31092;51.924;21.448;2023-09-12T08:09:55;99659.31;;;24.11;100.00
45357;BME280;31092;51.924;21.448;2023-09-12T08:12:23;99690.88;;;24.51;100.00
45357;BME280;31092;51.924;21.448;2023-09-12T08:14:48;99666.06;;;24.46;100.00
45357;BME280;31092;51.924;21.448;2023-09-12T08:17:15;99725.91;;;24.97;100.00
45357;BME280;31092;51.924;21.448;2023-09-12T08:19:41;99680.44;;;24.79;100.00
45357;BME280;31092;51.924;21.448;2023-09-12T08:22:07;99739.75;;;25.17;100.00
45357;BME280;31092;51.924;21.448;2023-09-12T08:24:34;99724.59;;;25.30;100.00
45357;BME280;31092;51.924;21.448;2023-09-12T08:27:00;99734.53;;;25.41;100.00
45357;BME280;31092;51.924;21.448;2023-09-12T08:29:28;99755.19;;;25.59;100.00
45357;BME280;31092;51.924;21.448;2023-09-12T08:31:54;99697.31;;;25.39;100.00
45357;BME280;31092;51.924;21.448;2023-09-12T08:34:22;99739.75;;;25.84;100.00
45357;BME280;31092;51.924;21.448;2023-09-12T08:36:48;99692.31;;;25.61;100.00
45357;BME280;31092;51.924;21.448;2023-09-12T08:39:15;99704.16;;;25.82;100.00
45357;BME280;31092;51.924;21.448;2023-09-12T08:41:42;99742.94;;;26.26;100.00
45357;BME280;31092;51.924;21.448;2023-09-12T08:44:08;99690.78;;;26.20;100.00
45357;BME280;31092;51.924;21.448;2023-09-12T08:46:34;99701.75;;;26.40;100.00
45357;BME280;31092;51.924;21.448;2023-09-12T08:48:59;99753.66;;;26.93;100.00
45357;BME280;31092;51.924;21.448;2023-09-12T08:51:26;99751.41;;;27.00;100.00
45357;BME280;31092;51.924;21.448;2023-09-12T08:53:52;99714.66;;;26.99;100.00
45357;BME280;31092;51.924;21.448;2023-09-12T08:56:18;99783.13;;;27.57;100.00
45357;BME280;31092;51.924;21.448;2023-09-12T08:58:44;99738.63;;;27.54;100.00
45357;BME280;31092;51.924;21.448;2023-09-12T09:01:13;99723.34;;;27.56;100.00
45357;BME280;31092;51.924;21.448;2023-09-12T09:03:41;99751.16;;;27.75;100.00
45357;BME280;31092;51.924;21.448;2023-09-12T09:06:11;99779.50;;;27.91;100.00
45357;BME280;31092;51.924;21.448;2023-09-12T09:08:38;99764.84;;;27.56;100.00
45357;BME280;31092;51.924;21.448;2023-09-12T09:11:04;99802.84;;;28.09;100.00
45357;BME280;31092;51.924;21.448;2023-09-12T09:13:34;99795.47;;;28.52;100.00
45357;BME280;31092;51.924;21.448;2023-09-12T09:16:16;99791.94;;;28.90;100.00
45357;BME280;31092;51.924;21.448;2023-09-12T09:18:58;99797.28;;;29.24;100.00
45357;BME280;31092;51.924;21.448;2023-09-12T09:21:26;99752.03;;;29.09;100.00
45357;BME280;31092;51.924;21.448;2023-09-12T09:23:53;99747.75;;;29.17;100.00
45357;BME280;31092;51.924;21.448;2023-09-12T09:26:19;99797.28;;;29.43;100.00
45357;BME280;31092;51.924;21.448;2023-09-12T09:28:45;99739.75;;;29.67;100.00
45357;BME280;31092;51.924;21.448;2023-09-12T09:31:12;99666.22;;;29.18;100.00
45357;BME280;31092;51.924;21.448;2023-09-12T09:33:42;99656.34;;;28.93;100.00
45357;BME280;31092;51.924;21.448;2023-09-12T09:36:14;99667.63;;;29.16;100.00
45357;BME280;31092;51.924;21.448;2023-09-12T09:38:40;99672.66;;;29.46;100.00
45357;BME280;31092;51.924;21.448;2023-09-12T09:41:06;99699.09;;;29.57;100.00
45357;BME280;31092;51.924;21.448;2023-09-12T09:43:31;99742.25;;;29.96;100.00
45357;BME280;31092;51.924;21.448;2023-09-12T09:45:57;99747.00;;;29.63;100.00
45357;BME280;31092;51.924;21.448;2023-09-12T09:48:25;99704.16;;;29.04;100.00
45357;BME280;31092;51.924;21.448;2023-09-12T09:51:02;99791.06;;;29.32;100.00
45357;BME280;31092;51.924;21.448;2023-09-12T09:53:29;99789.78;;;29.24;100.00
45357;BME280;31092;51.924;21.448;2023-09-12T09:56:27;99797.28;;;29.05;100.00
45357;BME280;31092;51.924;21.448;2023-09-12T09:58:54;99752.38;;;28.41;100.00
45357;BME280;31092;51.924;21.448;2023-09-12T10:01:27;99808.16;;;28.77;100.00
45357;BME280;31092;51.924;21.448;2023-09-12T10:03:59;99773.59;;;28.94;100.00
45357;BME280;31092;51.924;21.448;2023-09-12T10:06:29;99810.13;;;29.39;100.00
45357;BME280;31092;51.924;21.448;2023-09-12T10:08:58;99774.44;;;29.32;100.00
45357;BME280;31092;51.924;21.448;2023-09-12T10:11:27;99799.44;;;29.65;100.00
45357;BME280;31092;51.924;21.448;2023-09-12T10:13:55;99851.28;;;30.16;100.00
45357;BME280;31092;51.924;21.448;2023-09-12T10:16:30;99834.38;;;30.17;100.00
45357;BME280;31092;51.924;21.448;2023-09-12T10:19:17;99862.34;;;30.21;100.00
45357;BME280;31092;51.924;21.448;2023-09-12T10:21:58;99873.69;;;30.52;100.00
45357;BME280;31092;51.924;21.448;2023-09-12T10:24:27;99844.03;;;30.34;100.00
45357;BME280;31092;51.924;21.448;2023-09-12T10:26:53;99882.56;;;30.08;100.00
45357;BME280;31092;51.924;21.448;2023-09-12T10:29:20;99859.81;;;29.54;100.00
45357;BME280;31092;51.924;21.448;2023-09-12T10:31:48;99901.22;;;29.69;100.00
45357;BME280;31092;51.924;21.448;2023-09-12T10:34:14;99926.03;;;29.79;100.00
45357;BME280;31092;51.924;21.448;2023-09-12T10:36:41;99913.75;;;29.86;100.00
45357;BME280;31092;51.924;21.448;2023-09-12T10:39:11;99850.13;;;29.70;100.00
45357;BME280;31092;51.924;21.448;2023-09-12T10:41:38;99868.78;;;29.83;100.00
45357;BME280;31092;51.924;21.448;2023-09-12T10:44:24;99918.28;;;30.14;100.00
45357;BME280;31092;51.924;21.448;2023-09-12T10:46:51;99897.75;;;30.29;100.00
45357;BME280;31092;51.924;21.448;2023-09-12T10:49:18;99848.16;;;30.36;100.00
45357;BME280;31092;51.924;21.448;2023-09-12T10:51:46;99913.19;;;30.95;100.00
45357;BME280;31092;51.924;21.448;2023-09-12T10:54:37;99924.19;;;30.87;100.00
45357;BME280;31092;51.924;21.448;2023-09-12T10:57:07;99929.56;;;30.37;100.00
45357;BME280;31092;51.924;21.448;2023-09-12T10:59:33;99935.34;;;30.40;100.00
45357;BME280;31092;51.924;21.448;2023-09-12T11:02:27;99936.28;;;30.49;100.00
45357;BME280;31092;51.924;21.448;2023-09-12T11:04:54;99871.13;;;30.28;100.00
45357;BME280;31092;51.924;21.448;2023-09-12T11:07:34;99908.59;;;30.58;100.00
45357;BME280;31092;51.924;21.448;2023-09-12T11:12:45;99929.06;;;30.35;100.00
45357;BME280;31092;51.924;21.448;2023-09-12T11:15:11;99928.25;;;30.48;100.00
45357;BME280;31092;51.924;21.448;2023-09-12T11:17:43;99862.13;;;30.31;100.00
45357;BME280;31092;51.924;21.448;2023-09-12T11:20:10;99862.81;;;30.42;100.00
45357;BME280;31092;51.924;21.448;2023-09-12T11:22:37;99928.13;;;30.86;100.00
45357;BME280;31092;51.924;21.448;2023-09-12T11:25:16;99930.91;;;30.86;100.00
45357;BME280;31092;51.924;21.448;2023-09-12T11:28:01;99895.81;;;30.43;100.00
45357;BME280;31092;51.924;21.448;2023-09-12T11:30:29;99908.44;;;30.22;100.00
45357;BME280;31092;51.924;21.448;2023-09-12T11:32:59;99917.63;;;30.03;100.00
45357;BME280;31092;51.924;21.448;2023-09-12T11:35:27;99866.13;;;29.59;100.00
45357;BME280;31092;51.924;21.448;2023-09-12T11:37:57;99920.03;;;29.53;100.00
45357;BME280;31092;51.924;21.448;2023-09-12T11:42:58;99917.19;;;28.92;100.00
45357;BME280;31092;51.924;21.448;2023-09-12T11:45:24;99871.31;;;28.56;100.00
45357;BME280;31092;51.924;21.448;2023-09-12T11:47:50;99898.50;;;28.54;100.00
45357;BME280;31092;51.924;21.448;2023-09-12T11:50:49;99929.66;;;28.41;100.00
45357;BME280;31092;51.924;21.448;2023-09-12T11:53:14;99919.13;;;28.09;100.00
45357;BME280;31092;51.924;21.448;2023-09-12T11:55:47;99894.19;;;27.80;100.00
45357;BME280;31092;51.924;21.448;2023-09-12T11:58:16;99881.34;;;27.50;100.00
45357;BME280;31092;51.924;21.448;2023-09-12T12:00:47;99831.56;;;27.05;100.00
45357;BME280;31092;51.924;21.448;2023-09-12T12:03:14;99818.66;;;26.90;100.00
45357;BME280;31092;51.924;21.448;2023-09-12T12:05:40;99806.78;;;26.85;100.00
45357;BME280;31092;51.924;21.448;2023-09-12T12:08:07;99782.84;;;26.65;100.00
45357;BME280;31092;51.924;21.448;2023-09-12T12:10:34;99827.47;;;26.92;100.00
45357;BME280;31092;51.924;21.448;2023-09-12T12:12:59;99751.66;;;26.59;100.00
45357;BME280;31092;51.924;21.448;2023-09-12T12:15:27;99740.06;;;26.57;100.00
45357;BME280;31092;51.924;21.448;2023-09-12T12:17:56;99767.31;;;26.74;100.00
45357;BME280;31092;51.924;21.448;2023-09-12T12:20:22;99689.84;;;26.50;100.00
45357;BME280;31092;51.924;21.448;2023-09-12T12:22:48;99767.25;;;27.34;100.00
45357;BME280;31092;51.924;21.448;2023-09-12T12:25:14;99771.09;;;27.72;100.00
45357;BME280;31092;51.924;21.448;2023-09-12T12:27:41;99726.50;;;27.74;100.00
45357;BME280;31092;51.924;21.448;2023-09-12T12:30:09;99809.75;;;28.40;100.00
45357;BME280;31092;51.924;21.448;2023-09-12T12:32:45;99757.97;;;28.36;100.00
45357;BME280;31092;51.924;21.448;2023-09-12T12:35:21;99836.41;;;29.03;100.00
45357;BME280;31092;51.924;21.448;2023-09-12T12:37:51;99853.50;;;29.29;100.00
45357;BME280;31092;51.924;21.448;2023-09-12T12:40:17;99803.44;;;29.02;100.00
45357;BME280;31092;51.924;21.448;2023-09-12T12:42:44;99855.31;;;29.58;100.00
45357;BME280;31092;51.924;21.448;2023-09-12T12:45:19;99806.38;;;29.29;100.00
45357;BME280;31092;51.924;21.448;2023-09-12T12:47:45;99823.28;;;29.47;100.00
45357;BME280;31092;51.924;21.448;2023-09-12T12:50:15;99878.47;;;29.86;100.00
45357;BME280;31092;51.924;21.448;2023-09-12T12:52:42;99830.47;;;29.67;100.00